Terminal Aerodrome Forecast
Issued by NWS

Home | Current Version | Previous Version | Text Only | Print | Product List | Glossary On
Versions: 1 2 3 4 5 6 7 8 9 10 11 12 13 14
356
FTUS43 KOAX 062320
TAFSNY
TAF
KSNY 062320Z 0700/0724 15013G23KT P6SM SCT080
     FM070400 15010KT P6SM SCT080
     FM071100 35008KT P6SM BKN050
     FM071500 08015G25KT P6SM BKN050
     FM072000 11025KT P6SM VCTS BKN050CB
      TEMPO 0720/0724 VRB20G35KT 3SM TSRA BKN025CB=

USA.gov is the U.S. government's official web portal to all federal, state and local government web resources and services.